Time;durP1;ratioP1;P1;durP2;ratioP2;P2;SDS_P1;SDS_P2;PMS_P1;PMS_P2;Temp;Humidity;BMP_temperature;BMP_pressure;BME280_temperature;BME280_humidity;BME280_pressure;Samples;Min_cycle;Max_cycle;Signal;HPM_P1;HPM_P2
2022/11/13 00:01:14;;;;;;;;;7.00;7.00;;;;;4.45;92.92;100037.34;4993843;27;101772;-73
2022/11/13 00:03:41;;;;;;;;;12.00;8.75;;;;;4.55;93.06;100028.56;4990624;28;102307;-73
2022/11/13 00:06:11;;;;;;;;;14.50;10.75;;;;;4.54;92.85;100029.53;4988412;27;102118;-73
2022/11/13 00:08:38;;;;;;;;;6.00;4.25;;;;;4.62;92.65;100029.72;4990683;27;103625;-73
2022/11/13 00:11:17;;;;;;;;;10.00;7.00;;;;;4.61;92.68;100025.34;4990054;27;102201;-74
2022/11/13 00:13:44;;;;;;;;;3.75;3.75;;;;;4.69;92.79;100020.19;4988181;27;102009;-74
2022/11/13 00:16:16;;;;;;;;;7.75;5.75;;;;;4.73;92.47;100013.59;4994040;27;102358;-74
2022/11/13 00:18:44;;;;;;;;;5.50;3.00;;;;;4.79;92.25;100021.13;4982857;27;103984;-74
2022/11/13 00:21:20;;;;;;;;;7.50;3.50;;;;;4.84;92.18;100018.91;4992081;27;102450;-74
2022/11/13 00:23:48;;;;;;;;;7.50;6.00;;;;;4.85;91.77;100020.59;4987195;27;102101;-74
2022/11/13 00:26:21;;;;;;;;;15.50;8.25;;;;;4.80;91.70;100025.50;4992351;27;102400;-74
2022/11/13 00:28:53;;;;;;;;;15.25;12.50;;;;;4.76;91.15;100019.56;4988257;27;108528;-74
2022/11/13 00:31:21;;;;;;;;;14.25;11.75;;;;;4.71;91.72;100020.91;4988436;27;102204;-74
2022/11/13 00:33:48;;;;;;;;;22.00;18.00;;;;;4.69;92.13;100025.53;4993979;27;102338;-74
2022/11/13 00:36:36;;;;;;;;;20.75;16.25;;;;;4.69;92.12;100022.88;4993293;27;102348;-74
2022/11/13 00:39:03;;;;;;;;;18.25;16.00;;;;;4.49;91.96;100001.31;4991879;27;104346;-74
2022/11/13 00:41:30;;;;;;;;;10.50;9.25;;;;;4.65;91.85;100022.28;4992257;27;102421;-74
2022/11/13 00:43:57;;;;;;;;;22.25;18.50;;;;;4.64;91.72;100028.59;4991372;27;102360;-74
2022/11/13 00:46:24;;;;;;;;;11.25;10.00;;;;;4.74;92.39;100023.34;4988578;27;102312;-74
2022/11/13 00:48:51;;;;;;;;;9.00;7.50;;;;;4.80;92.54;100009.44;4980872;27;104202;-75
2022/11/13 00:51:18;;;;;;;;;13.00;11.75;;;;;4.85;91.77;100017.94;4990856;28;101905;-75
2022/11/13 00:53:46;;;;;;;;;13.25;11.75;;;;;4.89;91.52;100020.22;4981420;27;103863;-74
2022/11/13 00:56:13;;;;;;;;;12.75;11.00;;;;;4.91;91.47;100014.72;4991166;27;102421;-74
2022/11/13 00:58:40;;;;;;;;;11.25;8.75;;;;;4.86;90.83;100015.09;4985931;27;102966;-75
2022/11/13 01:01:11;;;;;;;;;16.75;13.00;;;;;4.85;91.69;100001.84;4991287;28;103647;-75
2022/11/13 01:03:38;;;;;;;;;12.50;11.00;;;;;4.87;91.58;99999.88;4990367;27;102665;-74
2022/11/13 01:06:15;;;;;;;;;17.50;12.00;;;;;4.88;91.48;100002.44;4990668;27;102166;-75
2022/11/13 01:08:42;;;;;;;;;7.75;6.75;;;;;4.91;91.41;100007.53;4991549;27;103940;-74
2022/11/13 01:11:13;;;;;;;;;10.25;7.75;;;;;4.94;90.93;99999.25;4989382;27;102216;-75
2022/11/13 01:13:42;;;;;;;;;28.00;26.00;;;;;4.80;91.50;100009.44;4991432;27;102139;-75
2022/11/13 01:16:11;;;;;;;;;18.25;16.75;;;;;4.83;91.70;100004.66;4989939;27;102227;-75
2022/11/13 01:18:40;;;;;;;;;16.25;14.00;;;;;4.90;91.80;100000.50;4985406;27;103957;-75
2022/11/13 01:21:18;;;;;;;;;15.50;11.00;;;;;4.95;91.54;99998.22;4983465;27;101996;-75
2022/11/13 01:23:46;;;;;;;;;7.00;5.75;;;;;4.97;91.22;100008.84;4993431;28;102488;-74
2022/11/13 01:26:40;;;;;;;;;21.25;17.00;;;;;4.95;90.78;100005.44;4995873;27;102584;-74
2022/11/13 01:29:09;;;;;;;;;14.00;11.25;;;;;4.91;90.85;99995.94;4974788;27;108682;-75
2022/11/13 01:31:36;;;;;;;;;27.25;20.25;;;;;4.82;91.44;99996.72;5010374;27;102123;-74
2022/11/13 01:34:03;;;;;;;;;22.00;19.75;;;;;4.89;91.18;99989.88;4993850;27;101982;-74
2022/11/13 01:36:30;;;;;;;;;22.75;17.50;;;;;4.92;91.22;99987.78;4993167;27;102355;-74
2022/11/13 01:38:57;;;;;;;;;17.25;11.50;;;;;4.93;91.02;99980.59;4991307;27;104174;-74
2022/11/13 01:41:26;;;;;;;;;18.25;15.75;;;;;4.92;91.28;99971.72;4994676;27;102209;-74
2022/11/13 01:43:54;;;;;;;;;17.25;12.25;;;;;4.95;90.93;99978.66;4993016;27;102143;-74
2022/11/13 01:46:54;;;;;;;;;13.00;10.25;;;;;4.99;91.05;99974.72;4995425;27;102184;-74
2022/11/13 01:49:36;;;;;;;;;30.50;22.25;;;;;4.79;91.87;99959.50;4986297;27;108743;-74
2022/11/13 01:52:08;;;;;;;;;34.00;31.00;;;;;4.74;93.03;99972.41;4990592;27;102443;-74
2022/11/13 01:54:40;;;;;;;;;22.25;17.75;;;;;4.84;92.62;99963.47;4994054;27;102467;-74
2022/11/13 01:57:07;;;;;;;;;17.00;10.75;;;;;4.92;92.23;99965.50;4992559;27;102255;-74
2022/11/13 01:59:42;;;;;;;;;17.00;15.00;;;;;4.94;91.72;99964.41;4992030;27;104194;-74
2022/11/13 02:02:09;;;;;;;;;16.25;14.00;;;;;4.91;91.86;99951.25;4990167;27;102343;-75
2022/11/13 02:04:37;;;;;;;;;11.75;8.50;;;;;4.93;91.53;99960.00;4978174;27;104946;-74
2022/11/13 02:07:20;;;;;;;;;17.50;14.00;;;;;4.94;91.50;99960.88;4987613;27;102562;-75
2022/11/13 02:10:05;;;;;;;;;13.75;11.00;;;;;4.99;91.35;99939.88;4988090;27;108131;-75
2022/11/13 02:12:57;;;;;;;;;15.50;13.25;;;;;4.88;91.48;99931.91;4992178;27;102440;-75
2022/11/13 02:15:44;;;;;;;;;13.25;12.75;;;;;4.98;91.90;99946.22;4992079;27;102338;-75
2022/11/13 02:18:40;;;;;;;;;16.75;10.25;;;;;5.02;91.75;99931.56;4986444;27;102063;-75
2022/11/13 02:21:37;;;;;;;;;6.00;6.00;;;;;5.07;91.34;99932.00;4985656;27;104152;-75
2022/11/13 02:24:20;;;;;;;;;22.75;16.25;;;;;5.03;91.11;99927.91;4982834;27;102313;-75
2022/11/13 02:26:49;;;;;;;;;17.75;13.75;;;;;5.07;91.12;99934.69;4993226;27;102104;-75
2022/11/13 02:29:16;;;;;;;;;8.50;8.50;;;;;5.10;91.09;99936.25;4988007;27;102576;-73
2022/11/13 02:31:43;;;;;;;;;11.00;10.50;;;;;5.16;91.49;99930.34;4993819;27;103998;-75
2022/11/13 02:34:10;;;;;;;;;3.50;3.50;;;;;5.17;91.11;99929.38;4994776;27;102342;-75
2022/11/13 02:36:37;;;;;;;;;24.25;23.75;;;;;5.01;91.41;99937.03;4989798;27;102263;-73
2022/11/13 02:39:07;;;;;;;;;23.25;20.25;;;;;4.99;91.75;99934.53;4996266;27;102082;-73
2022/11/13 02:41:34;;;;;;;;;19.75;16.75;;;;;5.00;91.70;99933.50;4995951;27;103951;-74
2022/11/13 02:44:01;;;;;;;;;16.50;13.50;;;;;4.97;91.60;99936.47;4992110;27;103108;-75
2022/11/13 02:46:28;;;;;;;;;17.25;13.25;;;;;4.99;91.84;99939.88;4991753;27;101987;-73
2022/11/13 02:48:55;;;;;;;;;11.75;11.00;;;;;5.03;91.76;99927.06;4994683;27;102516;-73
2022/11/13 02:51:22;;;;;;;;;7.00;5.00;;;;;5.11;91.77;99940.63;4991948;27;104317;-75
2022/11/13 02:53:50;;;;;;;;;6.00;4.00;;;;;5.15;91.71;99942.91;4997045;27;102417;-74
2022/11/13 02:56:17;;;;;;;;;11.00;5.00;;;;;5.15;91.21;99940.22;4988948;28;102303;-74
2022/11/13 02:58:44;;;;;;;;;12.75;12.75;;;;;5.17;91.09;99938.28;4992006;28;102061;-74
2022/11/13 03:01:11;;;;;;;;;6.50;6.25;;;;;5.14;90.89;99941.22;4992006;27;103083;-74
2022/11/13 03:03:38;;;;;;;;;15.00;10.25;;;;;5.12;91.17;99942.34;4992456;27;101845;-74
2022/11/13 03:06:25;;;;;;;;;25.25;19.25;;;;;5.10;91.37;99931.75;4990598;27;102141;-74
2022/11/13 03:08:52;;;;;;;;;11.50;8.50;;;;;5.18;91.47;99931.09;4988806;27;103141;-74
2022/11/13 03:11:19;;;;;;;;;8.75;3.75;;;;;5.23;91.53;99932.34;4993134;27;108699;-74
2022/11/13 03:13:46;;;;;;;;;4.00;4.00;;;;;5.28;91.06;99923.91;4985302;27;102491;-74
2022/11/13 03:16:15;;;;;;;;;3.75;3.00;;;;;5.29;90.84;99931.81;4986134;27;102204;-75
2022/11/13 03:18:42;;;;;;;;;7.00;4.00;;;;;5.32;90.75;99926.19;4984637;27;102473;-75
2022/11/13 03:21:12;;;;;;;;;8.00;4.00;;;;;5.34;90.60;99923.38;4989183;27;104151;-75
2022/11/13 03:23:40;;;;;;;;;2.00;2.00;;;;;5.35;90.48;99915.22;4993052;27;102275;-74
2022/11/13 03:26:10;;;;;;;;;11.50;6.25;;;;;5.33;90.26;99921.69;4988761;27;102008;-74
2022/11/13 03:28:37;;;;;;;;;7.75;6.00;;;;;5.33;90.31;99930.56;4981112;27;102006;-74
2022/11/13 03:31:04;;;;;;;;;14.00;14.00;;;;;5.23;90.53;99932.34;4974347;28;104139;-74
2022/11/13 03:33:32;;;;;;;;;24.00;18.00;;;;;5.14;91.48;99935.00;4990990;27;102131;-74
2022/11/13 03:35:59;;;;;;;;;9.25;7.25;;;;;5.21;91.68;99933.50;4993337;27;102524;-75
2022/11/13 03:38:26;;;;;;;;;9.25;8.00;;;;;5.27;91.46;99933.78;4992365;27;102428;-74
2022/11/13 03:40:54;;;;;;;;;7.50;7.25;;;;;5.34;91.33;99943.00;4986701;27;104016;-74
2022/11/13 03:43:22;;;;;;;;;3.75;3.75;;;;;5.33;91.12;99941.31;4993753;27;102333;-74
2022/11/13 03:45:49;;;;;;;;;2.00;2.00;;;;;5.43;90.78;99951.22;4993777;27;102144;-74
2022/11/13 03:48:16;;;;;;;;;2.75;2.00;;;;;5.39;90.50;99948.81;4991175;27;102376;-74
2022/11/13 03:50:46;;;;;;;;;2.25;1.50;;;;;5.47;90.29;99961.53;4993312;27;103934;-74
2022/11/13 03:53:14;;;;;;;;;1.75;1.00;;;;;5.46;90.01;99953.63;4991225;27;102290;-74
2022/11/13 03:55:42;;;;;;;;;1.75;1.75;;;;;5.49;89.72;99954.22;4993757;27;102192;-74
2022/11/13 03:58:09;;;;;;;;;2.75;2.00;;;;;5.50;89.80;99955.91;4997710;27;101972;-75
2022/11/13 04:00:38;;;;;;;;;2.50;2.25;;;;;5.53;89.82;99954.78;4992211;27;104101;-74
2022/11/13 04:03:04;;;;;;;;;8.50;7.25;;;;;5.54;89.57;99956.50;4992021;27;102482;-74
2022/11/13 04:05:32;;;;;;;;;1.50;1.50;;;;;5.54;89.51;99953.81;4993016;27;102451;-74
2022/11/13 04:07:58;;;;;;;;;3.50;3.50;;;;;5.54;89.40;99946.59;4993039;27;102261;-74
2022/11/13 04:10:25;;;;;;;;;12.50;9.75;;;;;5.48;89.52;99946.31;4991850;27;103661;-74
2022/11/13 04:12:52;;;;;;;;;8.00;8.00;;;;;5.48;89.54;99946.31;4993806;27;102139;-74
2022/11/13 04:15:20;;;;;;;;;3.75;1.75;;;;;5.51;89.96;99943.34;4994611;27;102217;-74
2022/11/13 04:17:48;;;;;;;;;7.00;7.00;;;;;5.54;90.20;99941.22;4992602;27;102238;-74
2022/11/13 04:20:15;;;;;;;;;9.00;7.25;;;;;5.48;89.79;99940.94;4991777;27;104112;-74
2022/11/13 04:22:42;;;;;;;;;31.50;24.50;;;;;5.32;90.94;99936.91;4991160;27;102308;-74
2022/11/13 04:25:09;;;;;;;;;37.50;29.25;;;;;5.21;91.38;99938.84;4992970;27;102214;-74
2022/11/13 04:27:36;;;;;;;;;37.50;30.75;;;;;5.13;92.31;99936.00;4992133;27;104008;-74
2022/11/13 04:30:04;;;;;;;;;23.75;19.00;;;;;5.14;91.83;99937.66;4981460;28;104184;-74
2022/11/13 04:32:32;;;;;;;;;19.25;15.75;;;;;5.21;91.74;99936.16;4991868;27;102313;-74
2022/11/13 04:34:59;;;;;;;;;9.50;7.50;;;;;5.27;91.52;99936.47;4992867;27;101973;-74
2022/11/13 04:37:26;;;;;;;;;8.75;8.25;;;;;5.32;91.54;99944.97;4990751;28;102413;-74
2022/11/13 04:39:53;;;;;;;;;15.50;12.00;;;;;5.22;91.15;99936.00;4995064;27;104061;-73
2022/11/13 04:45:05;;;;;;;;;11.00;9.00;;;;;5.32;90.95;99936.06;4992611;27;103253;-74
2022/11/13 04:47:32;;;;;;;;;3.00;2.25;;;;;5.34;90.85;99945.69;4992260;27;102496;-73
2022/11/13 04:49:59;;;;;;;;;6.50;5.50;;;;;5.37;91.00;99950.78;4993085;27;103959;-74
2022/11/13 04:52:27;;;;;;;;;3.25;2.75;;;;;5.40;90.56;99950.50;4992153;28;101990;-74
2022/11/13 04:54:54;;;;;;;;;5.00;2.50;;;;;5.43;90.48;99951.22;4989418;28;101980;-74
2022/11/13 04:57:22;;;;;;;;;4.00;3.50;;;;;5.43;90.49;99943.16;4987364;27;102049;-74
2022/11/13 04:59:49;;;;;;;;;9.00;6.00;;;;;5.39;90.13;99943.44;4991557;27;108203;-74
2022/11/13 05:02:29;;;;;;;;;7.25;6.00;;;;;5.26;90.20;99937.47;4971595;28;101900;-74
2022/11/13 05:04:56;;;;;;;;;18.25;17.00;;;;;5.22;90.80;99945.91;4990970;27;102256;-74
2022/11/13 05:07:30;;;;;;;;;19.25;15.75;;;;;5.21;91.10;99950.44;4984979;27;102260;-74
2022/11/13 05:09:57;;;;;;;;;12.75;11.25;;;;;5.18;91.25;99945.31;4990030;28;103661;-75
2022/11/13 05:12:24;;;;;;;;;12.25;10.50;;;;;5.16;91.11;99941.94;4991570;27;102021;-75
2022/11/13 05:14:51;;;;;;;;;12.00;8.25;;;;;5.20;91.65;99948.72;4992321;28;102705;-74
2022/11/13 05:17:18;;;;;;;;;33.75;27.50;;;;;5.00;91.29;99946.09;4990088;27;102358;-75
2022/11/13 05:19:45;;;;;;;;;21.25;17.25;;;;;4.98;91.91;99940.00;4982590;27;104087;-75
2022/11/13 05:22:12;;;;;;;;;26.25;19.75;;;;;4.91;92.15;99942.34;4985294;28;102474;-74
2022/11/13 05:24:39;;;;;;;;;23.25;19.00;;;;;4.83;92.51;99931.44;4992160;27;102249;-74
2022/11/13 05:27:06;;;;;;;;;28.25;24.25;;;;;4.88;92.51;99940.78;4986302;27;102343;-75
2022/11/13 05:29:38;;;;;;;;;40.50;32.75;;;;;4.82;92.47;99937.78;4988195;27;104093;-74
2022/11/13 05:32:05;;;;;;;;;16.75;12.50;;;;;4.90;92.25;99933.50;4990579;28;102387;-74
2022/11/13 05:34:32;;;;;;;;;12.25;9.75;;;;;4.97;92.00;99940.97;4988569;27;102278;-75
2022/11/13 05:36:59;;;;;;;;;12.25;9.25;;;;;4.97;91.74;99939.16;4991038;27;102280;-75
2022/11/13 05:39:25;;;;;;;;;11.00;8.50;;;;;4.96;91.36;99929.41;4986268;27;103683;-75
2022/11/13 05:41:52;;;;;;;;;8.75;7.50;;;;;5.01;91.42;99916.44;4992754;28;102191;-75
2022/11/13 05:44:19;;;;;;;;;11.00;9.25;;;;;4.98;91.27;99923.91;4991086;27;102171;-75
2022/11/13 05:46:46;;;;;;;;;12.25;8.25;;;;;4.97;91.04;99927.56;4992597;28;102470;-75
2022/11/13 05:49:13;;;;;;;;;21.50;18.25;;;;;4.91;91.27;99932.47;4990085;28;103979;-75
2022/11/13 05:51:40;;;;;;;;;20.75;20.00;;;;;4.83;91.57;99928.75;4991412;28;102179;-75
2022/11/13 05:54:07;;;;;;;;;30.00;22.00;;;;;4.74;91.43;99916.16;4989550;28;102102;-75
2022/11/13 05:56:35;;;;;;;;;27.75;24.50;;;;;4.69;91.87;99921.91;4991917;28;102996;-74
2022/11/13 05:59:03;;;;;;;;;29.00;25.25;;;;;4.58;92.83;99923.81;4978569;27;104021;-74
2022/11/13 06:01:36;;;;;;;;;28.00;18.75;;;;;4.55;93.06;99924.09;4977403;28;109437;-75
2022/11/13 06:04:05;;;;;;;;;25.75;19.25;;;;;4.54;92.78;99919.72;4990017;27;101933;-74
2022/11/13 06:06:33;;;;;;;;;21.75;16.00;;;;;4.63;93.02;99921.59;4991537;27;102169;-75
2022/11/13 06:09:02;;;;;;;;;30.00;18.25;;;;;4.58;92.93;99923.81;4991309;27;104244;-75
2022/11/13 06:11:30;;;;;;;;;28.00;23.00;;;;;4.64;92.92;99923.31;4986359;27;102211;-74
2022/11/13 06:13:58;;;;;;;;;18.50;11.75;;;;;4.68;92.58;99928.28;4989216;27;102295;-74
2022/11/13 06:16:28;;;;;;;;;28.75;25.50;;;;;4.60;92.62;99932.56;4993554;27;107062;-74
2022/11/13 06:18:57;;;;;;;;;29.00;23.75;;;;;4.54;92.58;99943.81;4977622;27;103040;-74
2022/11/13 06:21:27;;;;;;;;;29.25;23.75;;;;;4.50;93.47;99938.69;4991238;27;102344;-74
2022/11/13 06:23:55;;;;;;;;;25.50;22.25;;;;;4.36;93.22;99914.94;4996100;27;101996;-74
2022/11/13 06:26:28;;;;;;;;;27.75;22.50;;;;;4.42;93.76;99935.81;4997167;27;101925;-75
2022/11/13 06:28:56;;;;;;;;;28.00;21.25;;;;;4.46;93.78;99931.91;4989650;27;108646;-74
2022/11/13 06:31:28;;;;;;;;;21.50;19.00;;;;;4.47;94.40;99922.91;4993888;27;104552;-74
2022/11/13 06:33:57;;;;;;;;;18.00;14.00;;;;;4.63;93.91;99937.69;4989994;27;102519;-74
2022/11/13 06:36:28;;;;;;;;;15.00;12.75;;;;;4.72;93.67;99927.03;4996193;27;103215;-74
2022/11/13 06:38:55;;;;;;;;;9.50;7.50;;;;;4.81;93.75;99936.09;4991993;27;108793;-74
2022/11/13 06:41:25;;;;;;;;;7.00;6.75;;;;;4.87;92.79;99935.56;4995002;27;102569;-74
2022/11/13 06:43:52;;;;;;;;;14.25;11.50;;;;;4.86;92.20;99920.47;4994001;27;102016;-75
2022/11/13 06:46:24;;;;;;;;;22.50;16.25;;;;;4.83;92.39;99928.75;4970128;28;103045;-75
2022/11/13 06:48:51;;;;;;;;;10.75;7.75;;;;;4.94;92.24;99934.91;4989287;27;103685;-75
2022/11/13 06:51:24;;;;;;;;;8.50;8.00;;;;;5.03;92.28;99925.22;4993947;27;102219;-75
2022/11/13 06:53:51;;;;;;;;;10.00;9.00;;;;;5.07;91.79;99915.94;4991739;27;102059;-75
2022/11/13 06:56:18;;;;;;;;;7.50;7.00;;;;;5.10;91.27;99914.81;4993446;27;103370;-75
2022/11/13 06:58:45;;;;;;;;;8.00;7.00;;;;;5.13;91.30;99923.44;4984308;27;103954;-75
2022/11/13 07:01:18;;;;;;;;;8.00;6.50;;;;;5.11;90.28;99909.31;4992398;27;103097;-75
2022/11/13 07:03:45;;;;;;;;;7.00;6.50;;;;;5.16;90.50;99909.75;4991756;27;102448;-75
2022/11/13 07:06:15;;;;;;;;;6.75;5.50;;;;;5.20;90.45;99919.22;4992968;27;102250;-74
2022/11/13 07:08:42;;;;;;;;;6.00;3.25;;;;;5.24;90.30;99922.47;4990649;27;104026;-74
2022/11/13 07:11:13;;;;;;;;;3.75;3.50;;;;;5.26;90.08;99913.34;4989781;27;102532;-75
2022/11/13 07:13:41;;;;;;;;;4.00;2.75;;;;;5.35;90.46;99914.34;4989681;27;110391;-73
2022/11/13 07:16:10;;;;;;;;;3.00;3.00;;;;;5.41;90.15;99911.13;4994828;27;102287;-73
2022/11/13 07:18:47;;;;;;;;;12.00;9.25;;;;;5.44;89.55;99912.69;4989262;27;104333;-74
2022/11/13 07:21:14;;;;;;;;;14.75;12.00;;;;;5.33;89.67;99911.81;4978904;27;102648;-74
2022/11/13 07:23:42;;;;;;;;;17.00;12.75;;;;;5.20;90.64;99908.50;4972784;27;102410;-74
2022/11/13 07:26:12;;;;;;;;;18.00;12.75;;;;;5.33;90.84;99911.81;4987469;27;102253;-75
2022/11/13 07:28:40;;;;;;;;;8.50;6.25;;;;;5.45;90.22;99909.03;4987453;27;103693;-73
2022/11/13 07:31:08;;;;;;;;;6.00;4.00;;;;;5.51;89.55;99911.16;4986037;27;103180;-73
2022/11/13 07:33:35;;;;;;;;;8.50;5.00;;;;;5.56;89.21;99908.91;4986957;27;102270;-74
2022/11/13 07:36:02;;;;;;;;;6.50;4.00;;;;;5.61;88.81;99910.19;4992384;27;102132;-73
2022/11/13 07:38:29;;;;;;;;;3.50;2.50;;;;;5.67;88.23;99911.50;4981705;27;104005;-74
2022/11/13 07:40:57;;;;;;;;;7.00;6.50;;;;;5.72;88.50;99912.75;4989368;27;102150;-74
2022/11/13 07:43:25;;;;;;;;;24.00;19.75;;;;;5.45;89.12;99909.03;4992324;27;103867;-74
2022/11/13 07:45:55;;;;;;;;;18.50;15.25;;;;;5.59;88.85;99912.16;4994819;27;103229;-74
2022/11/13 07:48:23;;;;;;;;;15.00;12.50;;;;;5.55;88.68;99907.19;4993205;27;108701;-74
2022/11/13 07:50:50;;;;;;;;;28.00;18.75;;;;;5.39;88.69;99903.22;4983179;27;102276;-75
2022/11/13 07:53:18;;;;;;;;;25.00;22.75;;;;;5.25;90.11;99913.47;4992878;27;101908;-74
2022/11/13 07:55:46;;;;;;;;;31.75;20.50;;;;;5.23;90.02;99910.91;4995326;27;102395;-74
2022/11/13 07:58:14;;;;;;;;;30.75;26.75;;;;;5.15;90.84;99913.41;4989469;27;104867;-74
2022/11/13 08:00:41;;;;;;;;;26.00;21.00;;;;;5.12;91.60;99905.66;4979069;27;102448;-75
2022/11/13 08:03:11;;;;;;;;;18.25;15.50;;;;;5.33;90.84;99911.81;4976815;27;102105;-75
2022/11/13 08:05:39;;;;;;;;;13.75;8.75;;;;;5.46;89.60;99908.88;4992349;27;102522;-74
2022/11/13 08:08:06;;;;;;;;;15.00;12.50;;;;;5.53;89.07;99915.41;4988500;27;104032;-74
2022/11/13 08:10:35;;;;;;;;;18.25;18.25;;;;;5.57;88.04;99915.97;4990986;27;102146;-74
2022/11/13 08:13:05;;;;;;;;;11.00;10.25;;;;;5.64;87.36;99919.78;4990068;28;102378;-74
2022/11/13 08:15:33;;;;;;;;;9.00;6.75;;;;;5.75;87.95;99917.00;4991131;27;103235;-74
2022/11/13 08:18:02;;;;;;;;;32.50;21.75;;;;;5.49;88.71;99916.66;4988053;27;103172;-74
2022/11/13 08:20:30;;;;;;;;;33.50;22.50;;;;;5.36;90.02;99916.88;4984919;27;103026;-74
2022/11/13 08:22:59;;;;;;;;;17.75;11.50;;;;;5.51;89.11;99908.47;4985816;27;102228;-74
2022/11/13 08:25:27;;;;;;;;;13.75;11.75;;;;;5.67;89.31;99908.81;4993259;27;102213;-73
2022/11/13 08:27:55;;;;;;;;;32.75;28.25;;;;;5.48;89.22;99903.38;4989690;27;103981;-74
2022/11/13 08:30:25;;;;;;;;;25.25;22.50;;;;;5.51;90.43;99913.81;4977880;27;102314;-74
2022/11/13 08:32:53;;;;;;;;;24.00;20.25;;;;;5.61;90.82;99917.41;4990587;27;102260;-74
2022/11/13 08:35:20;;;;;;;;;13.75;9.75;;;;;5.79;89.96;99916.59;4988743;27;102417;-74
2022/11/13 08:37:54;;;;;;;;;18.00;13.25;;;;;5.92;88.86;99911.00;4990608;27;108663;-74
2022/11/13 08:40:21;;;;;;;;;11.25;8.00;;;;;6.03;87.60;99904.66;4990155;27;102267;-74
2022/11/13 08:42:48;;;;;;;;;11.75;8.00;;;;;6.15;87.61;99904.38;4991168;27;101984;-74
2022/11/13 08:45:15;;;;;;;;;8.50;7.00;;;;;6.21;86.98;99911.84;4991608;27;110182;-74
2022/11/13 08:47:42;;;;;;;;;5.75;5.75;;;;;6.25;86.72;99913.28;4980295;27;103977;-74
2022/11/13 08:50:09;;;;;;;;;24.75;20.00;;;;;6.00;87.67;99915.66;4986280;28;102492;-74
2022/11/13 08:52:36;;;;;;;;;18.75;13.75;;;;;6.01;88.71;99914.66;4976008;27;102516;-73
2022/11/13 08:55:04;;;;;;;;;45.75;35.25;;;;;5.47;89.23;99923.13;4982997;27;102431;-74
2022/11/13 08:57:31;;;;;;;;;26.75;22.25;;;;;5.66;90.16;99915.16;4984956;28;103962;-73
2022/11/13 08:59:58;;;;;;;;;17.50;14.50;;;;;5.89;89.29;99922.00;4984102;27;102887;-73
2022/11/13 09:02:25;;;;;;;;;30.75;25.75;;;;;5.67;88.63;99930.28;4992419;27;102306;-73
2022/11/13 09:04:52;;;;;;;;;27.75;23.75;;;;;5.71;89.18;99927.16;4988361;27;102091;-73
2022/11/13 09:07:19;;;;;;;;;24.50;20.25;;;;;5.81;89.31;99921.81;4989098;28;104089;-73
2022/11/13 09:09:52;;;;;;;;;31.25;25.75;;;;;5.73;89.90;99911.75;4991362;27;102377;-73
2022/11/13 09:12:20;;;;;;;;;36.00;26.00;;;;;5.85;89.01;99933.97;4986383;27;102288;-73
2022/11/13 09:14:47;;;;;;;;;38.50;30.50;;;;;5.75;89.39;99933.97;4987900;27;102848;-73
2022/11/13 09:17:14;;;;;;;;;33.75;28.50;;;;;5.85;90.12;99925.94;4986033;27;104000;-74
2022/11/13 09:19:41;;;;;;;;;29.75;25.50;;;;;5.85;89.81;99920.56;4971042;28;101973;-74
2022/11/13 09:22:09;;;;;;;;;29.50;23.50;;;;;5.87;89.90;99923.97;4979053;28;101951;-73
2022/11/13 09:24:36;;;;;;;;;38.50;30.50;;;;;5.69;90.80;99918.41;4984778;27;102313;-74
2022/11/13 09:27:03;;;;;;;;;33.00;21.75;;;;;5.70;91.00;99916.56;4987347;28;104009;-73
2022/11/13 09:29:30;;;;;;;;;30.50;25.00;;;;;5.78;90.33;99920.25;4988179;27;102408;-73
2022/11/13 09:31:57;;;;;;;;;40.50;33.25;;;;;5.84;90.68;99913.50;4990358;27;102382;-74
2022/11/13 09:34:26;;;;;;;;;42.00;34.25;;;;;5.78;90.69;99919.41;4986552;27;102084;-73
2022/11/13 09:36:53;;;;;;;;;34.00;27.75;;;;;5.73;90.08;99913.59;4991700;28;108644;-73
2022/11/13 09:39:20;;;;;;;;;29.75;25.50;;;;;5.83;89.81;99917.16;4980596;27;102578;-73
2022/11/13 09:41:50;;;;;;;;;36.50;31.25;;;;;5.92;89.96;99924.41;4974081;28;102025;-73
2022/11/13 09:44:40;;;;;;;;;25.00;19.25;;;;;6.19;89.50;99916.53;4991319;28;102400;-74
2022/11/13 09:47:28;;;;;;;;;38.25;26.25;;;;;6.19;89.58;99918.34;4990793;27;108608;-73
2022/11/13 09:50:26;;;;;;;;;39.75;32.50;;;;;6.06;90.35;99926.69;4993598;27;102071;-73
2022/11/13 09:52:54;;;;;;;;;38.25;32.50;;;;;6.02;89.27;99929.78;4986335;27;102223;-74
2022/11/13 09:55:31;;;;;;;;;45.75;36.00;;;;;5.89;89.57;99923.84;4985526;27;102430;-73
2022/11/13 09:58:30;;;;;;;;;29.00;22.00;;;;;5.95;89.94;99902.63;4990683;27;108865;-74
2022/11/13 10:01:00;;;;;;;;;25.50;21.00;;;;;6.30;89.50;99912.84;4979131;27;102141;-74
2022/11/13 10:03:46;;;;;;;;;18.75;15.25;;;;;6.52;88.45;99900.97;4976401;27;101975;-74
2022/11/13 10:06:39;;;;;;;;;14.00;9.75;;;;;6.78;87.37;99907.41;4989605;27;102266;-74
2022/11/13 10:09:24;;;;;;;;;10.00;6.50;;;;;7.00;86.62;99896.31;4988483;27;104004;-73
2022/11/13 10:11:55;;;;;;;;;15.00;9.00;;;;;7.16;85.61;99893.81;4980226;27;102489;-76
2022/11/13 10:14:25;;;;;;;;;11.00;9.25;;;;;7.35;85.16;99902.81;4986631;27;102065;-75
2022/11/13 10:17:14;;;;;;;;;9.00;7.00;;;;;7.50;84.76;99898.63;4994919;27;102134;-76
2022/11/13 10:20:04;;;;;;;;;14.50;11.25;;;;;7.68;83.71;99896.84;4987545;28;108692;-76
2022/11/13 10:22:39;;;;;;;;;9.75;8.00;;;;;7.78;83.20;99888.69;4999497;27;102341;-75
2022/11/13 10:25:15;;;;;;;;;7.75;7.50;;;;;7.78;82.18;99886.88;4994258;28;102068;-77
2022/11/13 10:27:47;;;;;;;;;9.50;8.00;;;;;7.88;82.49;99898.38;5008162;27;102705;-75
2022/11/13 10:30:17;;;;;;;;;4.00;4.00;;;;;7.93;81.82;99900.63;5002681;27;103043;-75
2022/11/13 10:32:45;;;;;;;;;5.00;5.00;;;;;7.99;81.43;99892.78;4990471;28;102165;-75
2022/11/13 10:35:43;;;;;;;;;14.00;10.25;;;;;7.81;80.80;99891.94;4991813;27;102395;-75
2022/11/13 10:38:43;;;;;;;;;28.50;26.75;;;;;7.67;81.60;99884.38;4984665;27;102323;-75
2022/11/13 10:41:16;;;;;;;;;34.50;28.00;;;;;7.54;83.35;99897.34;4986991;27;108557;-76
2022/11/13 10:43:49;;;;;;;;;21.25;19.75;;;;;7.79;82.62;99888.53;4978823;27;102487;-76
2022/11/13 10:46:23;;;;;;;;;20.75;18.50;;;;;7.77;81.79;99885.16;4989502;27;102069;-75
2022/11/13 10:48:50;;;;;;;;;23.00;20.25;;;;;7.81;82.91;99889.25;4992450;27;102091;-76
2022/11/13 10:51:29;;;;;;;;;23.25;20.50;;;;;7.68;81.63;99895.97;4989156;27;103989;-77
2022/11/13 10:53:58;;;;;;;;;30.00;27.25;;;;;7.28;81.66;99877.50;4985558;27;103688;-74
2022/11/13 10:56:30;;;;;;;;;32.25;26.75;;;;;7.39;81.67;99891.59;4995140;27;102225;-75
2022/11/13 10:59:17;;;;;;;;;20.25;17.00;;;;;7.33;81.71;99872.53;4990009;27;103251;-75
2022/11/13 11:01:46;;;;;;;;;20.25;19.00;;;;;7.59;83.49;99890.50;4991695;27;103638;-74
2022/11/13 11:04:19;;;;;;;;;12.50;9.75;;;;;7.68;82.18;99888.75;4985756;27;102267;-75
2022/11/13 11:06:46;;;;;;;;;21.50;19.00;;;;;7.55;82.15;99890.97;4990844;28;103001;-74
2022/11/13 11:09:36;;;;;;;;;19.25;16.25;;;;;7.66;81.92;99881.81;4988574;27;102829;-75
2022/11/13 11:12:16;;;;;;;;;15.00;14.50;;;;;7.75;82.20;99876.38;4988288;27;104126;-75
2022/11/13 11:14:57;;;;;;;;;14.00;13.50;;;;;7.83;81.86;99881.88;4995307;27;102132;-75
2022/11/13 11:17:33;;;;;;;;;9.50;7.50;;;;;7.88;82.79;99893.00;4993193;28;102231;-73
2022/11/13 11:20:18;;;;;;;;;14.50;12.25;;;;;7.85;80.97;99882.53;4982977;28;102454;-75
2022/11/13 11:22:51;;;;;;;;;19.50;17.75;;;;;7.70;81.98;99867.91;4991663;27;103988;-79
2022/11/13 11:25:52;;;;;;;;;26.25;17.75;;;;;7.90;82.13;99874.00;4985287;27;102946;-77
2022/11/13 11:28:27;;;;;;;;;27.00;23.75;;;;;7.73;80.43;99869.47;4983466;28;102450;-76
2022/11/13 11:31:04;;;;;;;;;30.75;23.00;;;;;7.73;81.49;99864.94;4984531;27;102235;-75
2022/11/13 11:33:51;;;;;;;;;21.00;15.50;;;;;7.91;80.73;99854.16;4985695;27;108679;-76
2022/11/13 11:36:34;;;;;;;;;19.75;16.00;;;;;7.98;80.93;99850.69;4982538;27;102300;-75
2022/11/13 11:39:07;;;;;;;;;14.00;11.25;;;;;8.12;80.66;99852.00;4977407;27;102142;-74
2022/11/13 11:41:48;;;;;;;;;17.00;11.00;;;;;8.19;80.02;99846.84;4992370;27;102491;-79